Time;durP1;ratioP1;P1;durP2;ratioP2;P2;SDS_P1;SDS_P2;PMS_P1;PMS_P2;Temp;Humidity;BMP_temperature;BMP_pressure;BME280_temperature;BME280_humidity;BME280_pressure;Samples;Min_cycle;Max_cycle;Signal;HPM_P1;HPM_P2
2023/03/16 00:00:44;;;;;;;3.6;2.7;;;;;;;1.91;80.91406;940.2701;;;;
2023/03/16 00:03:17;;;;;;;5.2;2.4;;;;;;;1.89;81.14551;940.2181;;;;
2023/03/16 00:08:09;;;;;;;6.6;3;;;;;;;1.77;82.01758;940.2572;;;;
2023/03/16 00:10:35;;;;;;;4.3;2.5;;;;;;;1.7;82.33789;940.2336;;;;
2023/03/16 00:13:11;;;;;;;3.9;2.6;;;;;;;1.7;82.38379;940.2628;;;;
2023/03/16 00:15:53;;;;;;;4.1;2.7;;;;;;;1.67;82.39941;940.2441;;;;
2023/03/16 00:18:21;;;;;;;3.3;2.5;;;;;;;1.58;82.57422;940.2484;;;;
2023/03/16 00:20:46;;;;;;;4.6;2.4;;;;;;;1.4;83.29688;940.2475;;;;
2023/03/16 00:23:12;;;;;;;3.6;2.6;;;;;;;1.38;83.51855;940.3064;;;;
2023/03/16 00:25:40;;;;;;;4.3;2.5;;;;;;;1.42;83.49023;940.3131;;;;
2023/03/16 00:28:04;;;;;;;4.7;2.6;;;;;;;1.53;82.90039;940.193;;;;
2023/03/16 00:30:33;;;;;;;4;2.6;;;;;;;1.62;82.39063;940.2205;;;;
2023/03/16 00:32:58;;;;;;;6;2.6;;;;;;;1.63;82.09082;940.1725;;;;
2023/03/16 00:35:24;;;;;;;3;2.4;;;;;;;1.7;81.42188;940.1969;;;;
2023/03/16 00:37:51;;;;;;;3.3;2;;;;;;;1.68;81.56445;940.2166;;;;
2023/03/16 00:40:20;;;;;;;3.6;2.3;;;;;;;1.63;81.7666;940.2385;;;;
2023/03/16 00:42:55;;;;;;;4.9;2.7;;;;;;;1.66;81.6377;940.2271;;;;
2023/03/16 00:45:22;;;;;;;4.3;2.4;;;;;;;1.53;82.13867;940.1746;;;;
2023/03/16 00:47:47;;;;;;;2.8;2.3;;;;;;;1.47;82.37207;940.1397;;;;
2023/03/16 00:50:21;;;;;;;3.7;2.5;;;;;;;1.44;82.45605;940.1499;;;;
2023/03/16 00:52:43;;;;;;;2.9;2.2;;;;;;;1.44;82.45605;940.1735;;;;
2023/03/16 00:55:12;;;;;;;5.7;2.5;;;;;;;1.42;82.38574;940.1312;;;;
2023/03/16 00:57:46;;;;;;;2.8;2.2;;;;;;;1.37;82.80176;940.1186;;;;
2023/03/16 01:00:19;;;;;;;2.7;2.1;;;;;;;1.41;82.59668;940.1299;;;;
2023/03/16 01:02:45;;;;;;;5.2;3.2;;;;;;;1.43;82.34277;940.0744;;;;
2023/03/16 01:05:09;;;;;;;4.8;3;;;;;;;1.4;82.61719;939.9973;;;;
2023/03/16 01:07:36;;;;;;;3.7;2.6;;;;;;;1.28;83.30859;940.0233;;;;
2023/03/16 01:10:01;;;;;;;2.8;2.4;;;;;;;1.33;83.23926;940.0044;;;;
2023/03/16 01:12:32;;;;;;;4.8;2.4;;;;;;;1.38;82.91504;940.0248;;;;
2023/03/16 01:14:56;;;;;;;4.3;2.9;;;;;;;1.33;82.9043;939.9636;;;;
2023/03/16 01:17:23;;;;;;;3.4;2.2;;;;;;;1.22;83.40625;939.8392;;;;
2023/03/16 01:19:48;;;;;;;3.8;2.5;;;;;;;1.15;83.84082;939.8764;;;;
2023/03/16 01:22:15;;;;;;;3.4;2.2;;;;;;;1.13;83.97168;939.8842;;;;
2023/03/16 01:24:40;;;;;;;3.6;2.4;;;;;;;1.05;84.17871;939.9406;;;;
2023/03/16 01:27:06;;;;;;;5.4;2.8;;;;;;;1.08;84.3291;939.9235;;;;
2023/03/16 01:29:33;;;;;;;4;2.6;;;;;;;1.12;84.02539;939.9426;;;;
2023/03/16 01:31:58;;;;;;;4.9;2.8;;;;;;;1.17;83.84473;939.9441;;;;
2023/03/16 01:34:25;;;;;;;5.7;3.3;;;;;;;1.1;83.95313;939.9578;;;;
2023/03/16 01:36:51;;;;;;;6.6;3.5;;;;;;;1.09;84.09668;939.9647;;;;
2023/03/16 01:39:19;;;;;;;4.7;3.2;;;;;;;1.05;84.3125;939.9509;;;;
2023/03/16 01:41:44;;;;;;;4;2.7;;;;;;;1.03;84.19727;939.9188;;;;
2023/03/16 01:44:10;;;;;;;5.4;2.6;;;;;;;0.97;84.27441;939.9467;;;;
2023/03/16 01:46:38;;;;;;;3.6;2.3;;;;;;;0.84;84.84961;939.9241;;;;
2023/03/16 01:49:04;;;;;;;3.5;2.4;;;;;;;0.84;85.05078;939.8746;;;;
2023/03/16 01:51:32;;;;;;;4.4;2.8;;;;;;;0.8;85.2334;939.8362;;;;
2023/03/16 01:53:57;;;;;;;4.8;2.6;;;;;;;0.85;85.12109;939.9089;;;;
2023/03/16 01:56:23;;;;;;;4.9;2.7;;;;;;;0.83;85.19531;939.8753;;;;
2023/03/16 01:58:49;;;;;;;4.3;2.6;;;;;;;0.78;85.48633;939.856;;;;
2023/03/16 02:01:12;;;;;;;6.5;3;;;;;;;0.76;85.42676;939.8521;;;;
2023/03/16 02:03:38;;;;;;;5.2;3.1;;;;;;;0.81;85.50098;939.8825;;;;
2023/03/16 02:06:03;;;;;;;5.1;3;;;;;;;0.84;85.24219;939.9102;;;;
2023/03/16 02:08:28;;;;;;;5.8;2.9;;;;;;;0.87;85.06738;939.9576;;;;
2023/03/16 02:10:54;;;;;;;6;2.9;;;;;;;0.83;85.05957;939.9519;;;;
2023/03/16 02:13:19;;;;;;;6.2;3;;;;;;;0.84;84.98535;939.9135;;;;
2023/03/16 02:15:44;;;;;;;4.7;2.5;;;;;;;0.84;84.98535;939.8883;;;;
2023/03/16 02:18:10;;;;;;;4;2.6;;;;;;;0.85;84.94238;939.8535;;;;
2023/03/16 02:20:38;;;;;;;5.5;2.7;;;;;;;0.85;84.90918;939.8854;;;;
2023/03/16 02:23:19;;;;;;;4.6;2.5;;;;;;;0.83;84.90332;939.8828;;;;
2023/03/16 02:25:43;;;;;;;3.3;2.1;;;;;;;0.67;85.68555;939.8935;;;;
2023/03/16 02:28:10;;;;;;;4;1.8;;;;;;;0.66;85.8291;939.8914;;;;
2023/03/16 02:30:36;;;;;;;2.5;2.1;;;;;;;0.63;86.10254;939.8187;;;;
2023/03/16 02:33:03;;;;;;;4;2.3;;;;;;;0.65;86.07227;939.8505;;;;
2023/03/16 02:35:26;;;;;;;3.9;1.9;;;;;;;0.62;86.22266;939.87;;;;
2023/03/16 02:37:53;;;;;;;2.6;1.8;;;;;;;0.6;86.4873;939.796;;;;
2023/03/16 02:40:19;;;;;;;2.3;1.7;;;;;;;0.57;86.66016;939.8198;;;;
2023/03/16 02:43:19;;;;;;;2.3;1.8;;;;;;;0.52;86.91699;939.7717;;;;
2023/03/16 02:45:44;;;;;;;2.8;1.9;;;;;;;0.5;86.83496;939.7456;;;;
2023/03/16 02:48:13;;;;;;;2.6;1.9;;;;;;;0.53;86.74219;939.7317;;;;
2023/03/16 02:50:39;;;;;;;2.9;1.8;;;;;;;0.51;86.66895;939.7369;;;;
2023/03/16 02:53:05;;;;;;;2.1;1.8;;;;;;;0.31;87.76563;939.7683;;;;
2023/03/16 02:55:33;;;;;;;2.8;2;;;;;;;0.33;88.3584;939.7869;;;;
2023/03/16 02:57:59;;;;;;;2.4;1.8;;;;;;;0.37;88.45898;939.8214;;;;
2023/03/16 03:00:31;;;;;;;2.8;1.8;;;;;;;0.38;88.07031;939.6972;;;;
2023/03/16 03:02:55;;;;;;;3.2;1.9;;;;;;;0.33;88.24902;939.7722;;;;
2023/03/16 03:05:21;;;;;;;2.9;1.7;;;;;;;0.37;88.37891;939.8211;;;;
2023/03/16 03:07:46;;;;;;;3.6;1.9;;;;;;;0.27;88.77051;939.8834;;;;
2023/03/16 03:10:47;;;;;;;3.7;1.9;;;;;;;0.36;88.79102;939.8278;;;;
2023/03/16 03:13:16;;;;;;;3.2;2.2;;;;;;;0.49;87.95703;939.8069;;;;
2023/03/16 03:15:41;;;;;;;4.6;2.4;;;;;;;0.56;87.34766;939.8081;;;;
2023/03/16 03:18:11;;;;;;;5.5;2.2;;;;;;;0.6;86.97754;939.7615;;;;
2023/03/16 03:20:36;;;;;;;3.2;2.8;;;;;;;0.67;86.5127;939.7333;;;;
2023/03/16 03:23:04;;;;;;;4.2;2.4;;;;;;;0.72;85.94238;939.7957;;;;
2023/03/16 03:25:28;;;;;;;4.4;2.6;;;;;;;0.7;86.0166;939.6505;;;;
2023/03/16 03:27:55;;;;;;;3.5;2.4;;;;;;;0.69;86.30469;939.7715;;;;
2023/03/16 03:30:19;;;;;;;4.3;2.4;;;;;;;0.71;85.90625;939.7438;;;;
2023/03/16 03:33:08;;;;;;;3.9;2.8;;;;;;;0.71;85.60547;939.775;;;;
2023/03/16 03:35:37;;;;;;;4.1;2.1;;;;;;;0.61;85.86426;939.7645;;;;
2023/03/16 03:38:06;;;;;;;4.7;2;;;;;;;0.61;85.75293;939.8478;;;;
2023/03/16 03:40:30;;;;;;;2.4;1.7;;;;;;;0.61;85.71875;939.872;;;;
2023/03/16 03:42:58;;;;;;;2;1.7;;;;;;;0.64;85.50293;939.8578;;;;
2023/03/16 03:45:24;;;;;;;2.1;1.8;;;;;;;0.6;85.49414;939.8571;;;;
2023/03/16 03:47:49;;;;;;;2.7;1.7;;;;;;;0.57;85.44434;939.8572;;;;
2023/03/16 03:50:18;;;;;;;3.3;1.9;;;;;;;0.51;85.67676;939.8677;;;;
2023/03/16 03:52:43;;;;;;;3.4;1.9;;;;;;;0.54;85.49219;939.8119;;;;
2023/03/16 03:55:14;;;;;;;4.4;2.2;;;;;;;0.53;85.38086;939.7692;;;;
2023/03/16 03:57:42;;;;;;;3.5;2;;;;;;;0.53;85.40137;939.7903;;;;
2023/03/16 04:02:40;;;;;;;2.4;1.7;;;;;;;0.25;86.62695;939.7621;;;;
2023/03/16 04:05:15;;;;;;;3.4;1.9;;;;;;;0.27;86.91992;939.6926;;;;
2023/03/16 04:07:43;;;;;;;2.7;1.7;;;;;;;0.19;87.54102;939.5598;;;;
2023/03/16 04:10:08;;;;;;;4;2.2;;;;;;;0.23;87.50391;939.6828;;;;
2023/03/16 04:12:41;;;;;;;4.1;2.9;;;;;;;0.27;87.04297;939.6534;;;;
2023/03/16 04:15:11;;;;;;;23.4;11.7;;;;;;;0.27;87.09863;939.5971;;;;
2023/03/16 04:17:36;;;;;;;29.4;14.2;;;;;;;0.27;86.86426;939.5533;;;;
2023/03/16 04:20:09;;;;;;;27.1;13.3;;;;;;;0.31;86.69531;939.613;;;;
2023/03/16 04:22:32;;;;;;;10.9;5.8;;;;;;;0.17;87.14453;939.6255;;;;
2023/03/16 04:25:01;;;;;;;6.8;4.2;;;;;;;0.18;87.54785;939.6797;;;;
2023/03/16 04:27:25;;;;;;;7.3;3.2;;;;;;;0.26;87.28809;939.6076;;;;
2023/03/16 04:30:05;;;;;;;5.7;2.9;;;;;;;0.22;87.05566;939.7198;;;;
2023/03/16 04:32:30;;;;;;;3.4;2.1;;;;;;;0.12;87.1582;939.7131;;;;
2023/03/16 04:34:55;;;;;;;3;2.2;;;;;;;0.05;87.84277;939.699;;;;
2023/03/16 04:37:24;;;;;;;6.6;3.8;;;;;;;0.07;87.82813;939.6277;;;;
2023/03/16 04:39:50;;;;;;;6.2;3.2;;;;;;;0.06;88.03613;939.6253;;;;
2023/03/16 04:42:23;;;;;;;9.6;4;;;;;;;0.04;87.50879;939.5634;;;;
2023/03/16 04:44:54;;;;;;;5.9;3.1;;;;;;;0.09;87.5957;939.5438;;;;
2023/03/16 04:47:19;;;;;;;3.9;2.7;;;;;;;0.15;87.60938;939.5666;;;;
2023/03/16 04:49:46;;;;;;;4.8;2.1;;;;;;;0.19;87.18359;939.5183;;;;
2023/03/16 04:52:11;;;;;;;2.6;1.9;;;;;;;0.21;87.03027;939.5319;;;;
2023/03/16 04:54:37;;;;;;;4.6;2.3;;;;;;;0.17;86.64355;939.615;;;;
2023/03/16 04:57:04;;;;;;;3.5;1.7;;;;;;;0.23;86.53418;939.6139;;;;
2023/03/16 04:59:30;;;;;;;3.4;1.7;;;;;;;0.16;86.6084;939.6326;;;;
2023/03/16 05:01:55;;;;;;;3.9;2;;;;;;;0.14;86.74902;939.6231;;;;
2023/03/16 05:04:25;;;;;;;2.6;1.9;;;;;;;0.05;87.1875;939.5928;;;;
2023/03/16 05:06:57;;;;;;;2.1;1.7;;;;;;;0.12;86.91309;939.5447;;;;
2023/03/16 05:09:22;;;;;;;3.5;1.9;;;;;;;0.09;87.03906;939.5586;;;;
2023/03/16 05:11:49;;;;;;;2.6;2;;;;;;;0.08;86.99219;939.5519;;;;
2023/03/16 05:14:14;;;;;;;3.6;2;;;;;;;0.06;87.25586;939.5508;;;;
2023/03/16 05:16:43;;;;;;;2.9;1.8;;;;;;;0.08;87.06152;939.4534;;;;
2023/03/16 05:19:08;;;;;;;2.9;1.9;;;;;;;0.09;86.94043;939.5159;;;;
2023/03/16 05:21:36;;;;;;;3.8;2;;;;;;;0.1;86.49707;939.399;;;;
2023/03/16 05:23:58;;;;;;;3.7;2.6;;;;;;;0.05;86.96484;939.517;;;;
2023/03/16 05:26:27;;;;;;;2.4;2.2;;;;;;;0.12;87.12305;939.4358;;;;
2023/03/16 05:28:52;;;;;;;3;1.8;;;;;;;0.18;86.48047;939.4961;;;;
2023/03/16 05:31:18;;;;;;;2.5;1.9;;;;;;;0.18;86.58008;939.5273;;;;
2023/03/16 05:33:43;;;;;;;2.3;1.9;;;;;;;0.24;86.02344;939.5969;;;;
2023/03/16 05:36:08;;;;;;;3;1.6;;;;;;;0.2;86.16992;939.5736;;;;
2023/03/16 05:38:35;;;;;;;3.8;1.9;;;;;;;0.26;86.00586;939.5669;;;;
2023/03/16 05:43:41;;;;;;;5.2;2.6;;;;;;;0.36;85.61426;939.5223;;;;
2023/03/16 05:46:08;;;;;;;3.1;2.5;;;;;;;0.3;85.32227;939.5197;;;;
2023/03/16 05:48:34;;;;;;;4.2;2.8;;;;;;;0.22;85.95215;939.5914;;;;
2023/03/16 05:51:04;;;;;;;4.7;2.6;;;;;;;0.35;86.10059;939.5242;;;;
2023/03/16 05:53:27;;;;;;;4.8;2.6;;;;;;;0.38;86.05078;939.52;;;;
2023/03/16 05:55:54;;;;;;;2.6;2.1;;;;;;;0.49;85.02637;939.5267;;;;
2023/03/16 05:58:20;;;;;;;3.3;2.3;;;;;;;0.53;84.52246;939.5311;;;;
2023/03/16 06:00:47;;;;;;;5.6;3.4;;;;;;;0.59;84.2334;939.5168;;;;
2023/03/16 06:03:12;;;;;;;10.3;6;;;;;;;0.64;84.22949;939.4777;;;;
2023/03/16 06:05:42;;;;;;;6.8;5.3;;;;;;;0.59;84.5459;939.4839;;;;
2023/03/16 06:08:11;;;;;;;6.2;4.8;;;;;;;0.69;84.95313;939.5325;;;;
2023/03/16 06:10:36;;;;;;;7.6;4.4;;;;;;;0.75;84.1084;939.4964;;;;
2023/03/16 06:13:03;;;;;;;10.5;5.8;;;;;;;0.84;83.46582;939.5479;;;;
2023/03/16 06:15:29;;;;;;;10.6;4.9;;;;;;;0.96;82.36328;939.3978;;;;
2023/03/16 06:17:56;;;;;;;11.9;6;;;;;;;1.31;82.07422;939.5055;;;;
2023/03/16 06:20:21;;;;;;;7.8;4.1;;;;;;;1.58;79.58691;939.432;;;;
2023/03/16 06:22:48;;;;;;;6.4;4.2;;;;;;;1.45;79.4043;939.4317;;;;
2023/03/16 06:25:13;;;;;;;3.7;2.4;;;;;;;1.62;78.21973;939.4745;;;;
2023/03/16 06:27:40;;;;;;;4.6;2.8;;;;;;;1.75;78.15527;939.3147;;;;
2023/03/16 06:30:06;;;;;;;7.5;3.6;;;;;;;1.86;77.17969;939.3566;;;;
2023/03/16 06:32:34;;;;;;;7.5;4;;;;;;;2.02;76.43652;939.3002;;;;
2023/03/16 06:35:01;;;;;;;6.2;3.5;;;;;;;2.17;75.67871;939.33;;;;
2023/03/16 06:37:30;;;;;;;7.1;3.6;;;;;;;2.04;76.42871;939.3095;;;;
2023/03/16 06:39:58;;;;;;;8.2;3.6;;;;;;;2.12;75.51465;939.2903;;;;
2023/03/16 06:42:23;;;;;;;5;2.9;;;;;;;2.63;73.65234;939.2844;;;;
2023/03/16 06:44:51;;;;;;;5;2.5;;;;;;;2.84;72.99512;939.3027;;;;
2023/03/16 06:47:16;;;;;;;4.6;2.5;;;;;;;3.03;71.95215;939.324;;;;
2023/03/16 06:49:50;;;;;;;6.3;3.2;;;;;;;2.89;71.87109;939.2569;;;;
2023/03/16 06:52:18;;;;;;;5.6;3.6;;;;;;;3.81;69.37402;939.0765;;;;
2023/03/16 06:54:43;;;;;;;6;2.9;;;;;;;4.36;66.44629;939.1701;;;;
2023/03/16 06:57:12;;;;;;;3.9;2.2;;;;;;;4.55;64.94434;939.2192;;;;
2023/03/16 06:59:36;;;;;;;2.6;1.4;;;;;;;3.66;65.06738;939.2636;;;;
2023/03/16 07:02:03;;;;;;;3.2;1.8;;;;;;;3.78;67.17676;939.2609;;;;
2023/03/16 07:04:28;;;;;;;10.5;4.7;;;;;;;3.86;66.58301;939.3027;;;;
2023/03/16 07:06:54;;;;;;;8;4.3;;;;;;;3.24;68.96582;939.2148;;;;
2023/03/16 07:09:20;;;;;;;7;4.1;;;;;;;3.72;68.2002;939.3122;;;;
2023/03/16 07:11:46;;;;;;;8.9;4.3;;;;;;;4.13;66.98438;939.3013;;;;
2023/03/16 07:14:11;;;;;;;5;2.9;;;;;;;3.94;67.04492;939.3284;;;;
2023/03/16 07:16:39;;;;;;;3.3;2.2;;;;;;;4.19;66.54297;939.2869;;;;
2023/03/16 07:19:04;;;;;;;4.9;2.5;;;;;;;4.62;64.41504;939.3033;;;;
2023/03/16 07:21:38;;;;;;;3.9;2.6;;;;;;;5.35;61.59277;939.2917;;;;
2023/03/16 07:23:56;;;;;;;2.8;2.1;;;;;;;4.74;62.50684;939.2944;;;;
2023/03/16 07:26:25;;;;;;;1.8;1.4;;;;;;;5.43;61.48145;939.2338;;;;
2023/03/16 07:28:50;;;;;;;3.1;1.5;;;;;;;5.68;61.03125;939.2137;;;;
2023/03/16 07:31:16;;;;;;;1.2;1.1;;;;;;;6.48;58.64453;939.2079;;;;
2023/03/16 07:33:41;;;;;;;3.6;1.6;;;;;;;6.38;57.63574;939.1291;;;;
2023/03/16 07:36:11;;;;;;;1.6;1.1;;;;;;;6.43;56.63672;939.1726;;;;
2023/03/16 07:38:37;;;;;;;1.4;0.9;;;;;;;7.12;56.21777;939.1226;;;;
2023/03/16 07:41:05;;;;;;;2;1.2;;;;;;;7.66;55.10938;939.1057;;;;
2023/03/16 07:43:31;;;;;;;1.9;0.9;;;;;;;8.17;52.39258;939.0452;;;;
2023/03/16 07:45:58;;;;;;;1.6;1.2;;;;;;;8.45;50.76855;939.0253;;;;
2023/03/16 07:48:23;;;;;;;4.4;1.7;;;;;;;8.31;48.59277;939.0363;;;;
2023/03/16 07:50:55;;;;;;;2;1.4;;;;;;;6.89;51.60352;939.0424;;;;
2023/03/16 07:53:23;;;;;;;2.3;1.3;;;;;;;7.56;50.57227;939.031;;;;
2023/03/16 07:55:48;;;;;;;1.9;1.3;;;;;;;6.84;51.9248;939.0339;;;;
2023/03/16 07:58:14;;;;;;;2.6;1.2;;;;;;;6.84;52.72852;939.0745;;;;
2023/03/16 08:00:41;;;;;;;3.8;1.4;;;;;;;7.18;51.45508;939.0377;;;;
2023/03/16 08:03:07;;;;;;;3.2;1.5;;;;;;;7.25;49.12012;939.111;;;;
2023/03/16 08:05:33;;;;;;;3.7;1.9;;;;;;;6.8;50.99219;939.1113;;;;
2023/03/16 08:08:19;;;;;;;2.2;1.1;;;;;;;7.15;50.55762;939.0511;;;;
2023/03/16 08:10:44;;;;;;;2.4;1.4;;;;;;;7.47;51.33301;939.003;;;;
2023/03/16 08:13:10;;;;;;;2.3;1.1;;;;;;;8.61;48.35547;938.9673;;;;
2023/03/16 08:15:39;;;;;;;2.7;1;;;;;;;11.02;43.93848;938.9783;;;;
2023/03/16 08:18:09;;;;;;;1.9;0.9;;;;;;;11.59;42.64648;938.9178;;;;
2023/03/16 08:20:33;;;;;;;0.8;0.5;;;;;;;10.35;42.74023;938.9227;;;;
2023/03/16 08:23:21;;;;;;;1.7;0.8;;;;;;;10.63;43.32813;938.8784;;;;
2023/03/16 08:25:46;;;;;;;3.6;1.4;;;;;;;11.64;39.58203;938.8881;;;;
2023/03/16 08:28:12;;;;;;;2.8;0.7;;;;;;;11.73;40.43848;938.8742;;;;
2023/03/16 08:30:37;;;;;;;1.9;1.1;;;;;;;13.55;35.35449;938.7866;;;;
2023/03/16 08:33:04;;;;;;;1.1;0.8;;;;;;;12.19;37.16797;938.7648;;;;
2023/03/16 08:35:29;;;;;;;2.2;1.1;;;;;;;11.83;38.14551;938.7668;;;;
2023/03/16 08:37:55;;;;;;;1.6;0.7;;;;;;;14.19;33.66699;938.6962;;;;
2023/03/16 08:40:21;;;;;;;1.1;0.6;;;;;;;14.4;33.25781;938.686;;;;
2023/03/16 08:42:48;;;;;;;1.3;0.7;;;;;;;13.75;34.95508;938.7361;;;;
2023/03/16 08:45:10;;;;;;;0.5;0.5;;;;;;;13.84;32.91602;938.697;;;;
2023/03/16 08:51:31;;;;;;;0.8;0.6;;;;;;;13.8;32.66992;938.7033;;;;
2023/03/16 08:53:57;;;;;;;0.6;0.5;;;;;;;13.98;32.08496;938.7311;;;;
2023/03/16 08:56:22;;;;;;;1.1;0.5;;;;;;;14.71;31.43652;938.6605;;;;
2023/03/16 08:58:52;;;;;;;0.5;0.5;;;;;;;16;30.61523;938.6398;;;;
2023/03/16 09:01:24;;;;;;;1.5;0.7;;;;;;;16.28;27.03711;938.5736;;;;
2023/03/16 09:03:56;;;;;;;0.4;0.4;;;;;;;14.15;29.4043;938.6259;;;;
2023/03/16 09:06:23;;;;;;;0.7;0.6;;;;;;;15.52;29.31152;938.5465;;;;
2023/03/16 09:12:39;;;;;;;1.2;0.7;;;;;;;16.41;29.45215;938.4667;;;;
2023/03/16 09:15:03;;;;;;;1.3;0.5;;;;;;;15.94;27.98633;938.4894;;;;
2023/03/16 09:17:29;;;;;;;3.6;0.8;;;;;;;16.73;27.79395;938.4192;;;;
2023/03/16 09:19:56;;;;;;;1.1;0.7;;;;;;;18.02;27.46973;938.4526;;;;
2023/03/16 09:22:21;;;;;;;0.9;0.6;;;;;;;18.31;27.02246;938.4045;;;;
2023/03/16 09:24:51;;;;;;;1;0.5;;;;;;;16.73;26.12695;938.3926;;;;
2023/03/16 09:27:19;;;;;;;0.7;0.5;;;;;;;18.42;27.23828;938.3839;;;;
2023/03/16 09:29:44;;;;;;;0.5;0.4;;;;;;;18.55;25.49121;938.3855;;;;
2023/03/16 09:32:14;;;;;;;0.7;0.5;;;;;;;18.59;24.96973;938.3984;;;;
2023/03/16 09:34:38;;;;;;;1.9;0.6;;;;;;;18.27;24.91699;938.4271;;;;
2023/03/16 09:37:10;;;;;;;2;0.8;;;;;;;18.68;23.91699;938.4348;;;;
2023/03/16 09:39:42;;;;;;;1.7;0.6;;;;;;;17.02;27.9873;938.4341;;;;
2023/03/16 09:42:10;;;;;;;0.9;0.5;;;;;;;19.23;24.08594;938.4177;;;;
2023/03/16 09:44:38;;;;;;;0.6;0.3;;;;;;;19.94;24.08984;938.3656;;;;
2023/03/16 09:47:03;;;;;;;0.3;0.3;;;;;;;20.41;22.21191;938.353;;;;
2023/03/16 09:55:45;;;;;;;0.6;0.5;;;;;;;17.83;24.75195;938.3158;;;;
2023/03/16 09:58:14;;;;;;;1;0.4;;;;;;;18.62;24.66895;938.3002;;;;
2023/03/16 10:00:40;;;;;;;0.7;0.6;;;;;;;18.41;26.70313;938.3211;;;;
2023/03/16 10:03:04;;;;;;;0.5;0.5;;;;;;;16.48;25.47559;938.2186;;;;
2023/03/16 10:05:29;;;;;;;0.9;0.5;;;;;;;16.79;26.95215;938.2222;;;;
2023/03/16 10:07:55;;;;;;;1.8;0.6;;;;;;;17.04;25.86719;938.1055;;;;
2023/03/16 10:10:20;;;;;;;5.3;0.9;;;;;;;17.86;25.67188;938.1621;;;;
2023/03/16 10:12:45;;;;;;;2.1;0.6;;;;;;;18.45;24.43848;938.1867;;;;
2023/03/16 10:15:14;;;;;;;0.5;0.5;;;;;;;17.54;28.28711;938.101;;;;
2023/03/16 10:17:39;;;;;;;0.6;0.6;;;;;;;17.61;24.75195;938.1038;;;;
2023/03/16 10:20:07;;;;;;;2;0.5;;;;;;;18.4;24.45898;938.1278;;;;
2023/03/16 10:22:30;;;;;;;0.6;0.5;;;;;;;18.84;24.08789;938.0831;;;;
2023/03/16 10:24:55;;;;;;;1.2;0.5;;;;;;;18.5;22.67383;938.0825;;;;
2023/03/16 10:27:21;;;;;;;0.8;0.6;;;;;;;18.54;23.30469;938.0864;;;;
2023/03/16 10:29:51;;;;;;;0.4;0.4;;;;;;;18.39;23.63281;938.0361;;;;
2023/03/16 10:32:16;;;;;;;1.2;0.5;;;;;;;18.38;24.99316;938.046;;;;
2023/03/16 10:34:44;;;;;;;0.7;0.5;;;;;;;18.15;23.94531;938.0109;;;;
2023/03/16 10:37:10;;;;;;;1.4;0.7;;;;;;;18.84;23.83203;937.9743;;;;
2023/03/16 10:39:41;;;;;;;0.6;0.4;;;;;;;19.07;22.86621;937.9256;;;;
2023/03/16 10:42:02;;;;;;;1.2;0.4;;;;;;;19.09;22.83301;937.9299;;;;
2023/03/16 10:44:31;;;;;;;0.2;0.2;;;;;;;20.28;22.5791;937.9081;;;;
2023/03/16 10:46:59;;;;;;;0.5;0.5;;;;;;;20.92;22.12012;937.8992;;;;
2023/03/16 10:49:26;;;;;;;0.5;0.5;;;;;;;21.46;20.02832;937.8619;;;;
2023/03/16 10:51:52;;;;;;;0.9;0.6;;;;;;;21.64;21.80469;937.8506;;;;
2023/03/16 10:54:17;;;;;;;1.5;0.5;;;;;;;19.39;23.61719;937.8873;;;;
2023/03/16 10:56:42;;;;;;;1.4;0.4;;;;;;;19.12;22.99707;937.7823;;;;
2023/03/16 10:59:07;;;;;;;0.9;0.5;;;;;;;19.57;24.12793;937.8333;;;;
2023/03/16 11:01:32;;;;;;;1.1;0.6;;;;;;;19.61;22.8125;937.7992;;;;
2023/03/16 11:03:58;;;;;;;0.5;0.4;;;;;;;19.68;23.63281;937.8259;;;;
2023/03/16 11:06:29;;;;;;;1.4;0.5;;;;;;;19.81;22.05371;937.7216;;;;
2023/03/16 11:08:51;;;;;;;0.6;0.5;;;;;;;19.92;21.19531;937.6777;;;;
2023/03/16 11:11:20;;;;;;;0.4;0.4;;;;;;;20.02;23.42969;937.6119;;;;
2023/03/16 11:13:45;;;;;;;0.5;0.4;;;;;;;21.02;21.41211;937.6103;;;;
2023/03/16 11:16:11;;;;;;;0.4;0.4;;;;;;;22.26;19.70117;937.568;;;;
2023/03/16 11:18:39;;;;;;;1.2;0.5;;;;;;;20.25;22.93945;937.5281;;;;
2023/03/16 11:21:03;;;;;;;0.8;0.5;;;;;;;20.89;21.28809;937.387;;;;
2023/03/16 11:23:28;;;;;;;1.4;0.6;;;;;;;21.79;19.87988;937.4272;;;;
2023/03/16 11:25:57;;;;;;;0.6;0.6;;;;;;;20.91;21.10254;937.3596;;;;
2023/03/16 11:28:25;;;;;;;1.4;0.4;;;;;;;21.13;20.86719;937.2523;;;;
2023/03/16 11:30:50;;;;;;;0.8;0.5;;;;;;;20.54;20.44238;937.2678;;;;
2023/03/16 11:33:15;;;;;;;0.6;0.5;;;;;;;21.18;20.72949;937.2595;;;;
2023/03/16 11:35:44;;;;;;;0.3;0.3;;;;;;;22.46;19.72168;937.1711;;;;
2023/03/16 11:38:09;;;;;;;0.6;0.4;;;;;;;22.36;20.12793;937.1847;;;;
2023/03/16 11:40:35;;;;;;;0.8;0.6;;;;;;;23.04;18.69043;937.1161;;;;
2023/03/16 11:43:01;;;;;;;1.1;0.5;;;;;;;21.41;22.21484;937.0564;;;;
2023/03/16 11:45:27;;;;;;;0.4;0.4;;;;;;;21.07;21.90527;936.9677;;;;
2023/03/16 11:47:52;;;;;;;0.5;0.5;;;;;;;20.77;19.83398;936.9387;;;;
2023/03/16 11:50:20;;;;;;;0.6;0.4;;;;;;;20.69;19.58496;936.8773;;;;
2023/03/16 11:52:50;;;;;;;0.4;0.4;;;;;;;21.55;20.12598;936.8818;;;;
2023/03/16 11:55:20;;;;;;;2.5;1.4;;;;;;;22.41;21.26855;936.8557;;;;
2023/03/16 11:57:45;;;;;;;3.4;0.6;;;;;;;21.7;20.96484;936.76;;;;
2023/03/16 12:00:10;;;;;;;0.5;0.5;;;;;;;21.33;21.36816;936.7734;;;;
2023/03/16 12:02:35;;;;;;;0.8;0.5;;;;;;;22.5;20.55664;936.7119;;;;
2023/03/16 12:05:00;;;;;;;1;0.5;;;;;;;23.51;18.2627;936.7113;;;;
2023/03/16 12:07:30;;;;;;;1;0.7;;;;;;;22.91;18.7793;936.6248;;;;
2023/03/16 12:09:57;;;;;;;2.3;0.5;;;;;;;23.89;19.09082;936.5998;;;;
2023/03/16 12:12:22;;;;;;;0.9;0.5;;;;;;;24.02;18.7666;936.5345;;;;
2023/03/16 12:14:48;;;;;;;0.9;0.5;;;;;;;24.62;17.60156;936.4597;;;;
2023/03/16 12:17:13;;;;;;;1.4;0.6;;;;;;;25.33;18.29102;936.5614;;;;
2023/03/16 12:19:42;;;;;;;0.5;0.4;;;;;;;25.55;17.36621;936.5027;;;;
2023/03/16 12:22:07;;;;;;;0.7;0.3;;;;;;;25.5;17.15137;936.5565;;;;
2023/03/16 12:24:36;;;;;;;0.6;0.5;;;;;;;24.64;17.71973;936.455;;;;
2023/03/16 12:27:02;;;;;;;0.5;0.4;;;;;;;23.22;20.4375;936.4069;;;;
2023/03/16 12:29:27;;;;;;;0.9;0.4;;;;;;;23.01;18.91211;936.4067;;;;
2023/03/16 12:31:54;;;;;;;0.6;0.5;;;;;;;22.16;20.57617;936.3191;;;;
2023/03/16 12:34:18;;;;;;;0.6;0.4;;;;;;;22.53;19.15039;936.3278;;;;
2023/03/16 12:36:43;;;;;;;3;0.6;;;;;;;22.12;19.71875;936.3125;;;;
2023/03/16 12:39:08;;;;;;;1.1;0.4;;;;;;;23.25;19.27539;936.2452;;;;
2023/03/16 12:41:35;;;;;;;0.7;0.5;;;;;;;24.05;17.97949;936.2541;;;;
2023/03/16 12:44:03;;;;;;;0.9;0.6;;;;;;;24.76;17.45313;936.2889;;;;
2023/03/16 12:46:29;;;;;;;1.1;0.6;;;;;;;23.59;18.94824;936.1976;;;;
2023/03/16 12:48:54;;;;;;;1.4;0.5;;;;;;;23.11;19.91504;936.2573;;;;
2023/03/16 12:51:19;;;;;;;0.7;0.5;;;;;;;23.17;19.7998;936.241;;;;
2023/03/16 12:53:44;;;;;;;0.7;0.5;;;;;;;23.34;19.30273;936.2952;;;;
2023/03/16 12:56:12;;;;;;;0.6;0.5;;;;;;;23.46;19.51953;936.3234;;;;
2023/03/16 12:58:37;;;;;;;1.7;0.5;;;;;;;22.99;20.6377;936.2598;;;;
2023/03/16 13:01:05;;;;;;;1.4;0.5;;;;;;;20.22;23.52148;936.3433;;;;
2023/03/16 13:03:30;;;;;;;0.3;0.3;;;;;;;21.46;22.28809;936.3184;;;;
2023/03/16 13:05:58;;;;;;;0.4;0.4;;;;;;;22.55;20.8291;936.28;;;;
2023/03/16 13:08:23;;;;;;;0.9;0.7;;;;;;;22.16;21.25586;936.2371;;;;
2023/03/16 13:10:48;;;;;;;0.9;0.5;;;;;;;23.23;21.80078;936.215;;;;
2023/03/16 13:13:13;;;;;;;1.1;0.6;;;;;;;23.64;20.35059;936.2063;;;;
2023/03/16 13:15:39;;;;;;;5;1.5;;;;;;;25.32;22.19824;936.1309;;;;
2023/03/16 13:18:07;;;;;;;0.5;0.5;;;;;;;27.12;18.00781;936.156;;;;
2023/03/16 13:20:32;;;;;;;1.6;0.8;;;;;;;26.77;18.25391;936.1354;;;;
2023/03/16 13:22:59;;;;;;;0.9;0.5;;;;;;;24.38;20.37305;936.171;;;;
2023/03/16 13:25:24;;;;;;;0.6;0.5;;;;;;;24.87;20.9375;936.1473;;;;
2023/03/16 13:27:50;;;;;;;0.9;0.7;;;;;;;23.54;23.05078;936.1777;;;;
2023/03/16 13:30:15;;;;;;;0.7;0.7;;;;;;;21.81;24.71875;936.2374;;;;
2023/03/16 13:32:45;;;;;;;1;0.5;;;;;;;22.74;22.28223;936.2001;;;;
2023/03/16 13:35:10;;;;;;;0.9;0.7;;;;;;;22.9;22.52441;936.1594;;;;
2023/03/16 13:37:35;;;;;;;0.7;0.6;;;;;;;21.58;24.36719;936.1674;;;;
2023/03/16 13:40:04;;;;;;;0.6;0.6;;;;;;;20.68;26.8418;936.2278;;;;
2023/03/16 13:42:30;;;;;;;0.7;0.5;;;;;;;21.78;24.85742;936.176;;;;
2023/03/16 13:44:57;;;;;;;0.6;0.5;;;;;;;22.26;23.29004;936.1367;;;;
2023/03/16 13:47:22;;;;;;;0.4;0.4;;;;;;;22.74;23.2334;936.1978;;;;
2023/03/16 13:49:50;;;;;;;0.5;0.5;;;;;;;24.1;21.37207;936.2243;;;;
2023/03/16 13:52:15;;;;;;;1;0.6;;;;;;;23.8;21.72363;936.1404;;;;
2023/03/16 13:54:40;;;;;;;0.9;0.6;;;;;;;23.78;21.36914;936.1462;;;;
2023/03/16 13:57:08;;;;;;;1.3;0.5;;;;;;;23.8;21.54688;936.1624;;;;
2023/03/16 13:59:34;;;;;;;0.7;0.6;;;;;;;22.85;22.68652;936.2012;;;;
2023/03/16 14:01:58;;;;;;;1.5;0.6;;;;;;;23.65;21.78613;936.1633;;;;
2023/03/16 14:04:24;;;;;;;0.4;0.4;;;;;;;24.05;21.05176;936.1429;;;;
2023/03/16 14:06:48;;;;;;;0.6;0.6;;;;;;;23.41;21.65723;936.1511;;;;
2023/03/16 14:09:15;;;;;;;1.2;0.6;;;;;;;21.66;23.29395;936.2241;;;;
2023/03/16 14:11:41;;;;;;;0.9;0.5;;;;;;;22.05;23.43066;936.2095;;;;
2023/03/16 14:14:08;;;;;;;0.5;0.5;;;;;;;22.68;22.33789;936.1355;;;;
2023/03/16 14:16:33;;;;;;;1.1;0.6;;;;;;;21.89;24.48828;936.1317;;;;
2023/03/16 14:19:02;;;;;;;1.4;0.8;;;;;;;21.42;25.63281;936.1682;;;;
2023/03/16 14:21:27;;;;;;;0.4;0.4;;;;;;;20.43;26.96582;936.0407;;;;
2023/03/16 14:23:55;;;;;;;0.7;0.7;;;;;;;20.2;25.99512;936.0683;;;;
2023/03/16 14:26:20;;;;;;;1;0.7;;;;;;;19.31;28.41211;936.0184;;;;
2023/03/16 14:28:45;;;;;;;0.8;0.7;;;;;;;18.5;28.8252;936.0875;;;;
2023/03/16 14:31:13;;;;;;;1.4;1.1;;;;;;;18.69;29.32715;936.0864;;;;
2023/03/16 14:33:40;;;;;;;1.7;0.8;;;;;;;18.16;30.69727;936.124;;;;
2023/03/16 14:36:07;;;;;;;0.9;0.7;;;;;;;18.33;30.27832;936.1188;;;;
2023/03/16 14:38:34;;;;;;;2.1;1;;;;;;;17.65;31.28809;936.1167;;;;
2023/03/16 14:40:57;;;;;;;0.7;0.7;;;;;;;17.23;31.4082;936.1216;;;;
2023/03/16 14:43:31;;;;;;;1.3;1;;;;;;;17.51;31.44043;936.113;;;;
2023/03/16 14:45:58;;;;;;;1.9;0.8;;;;;;;17.04;32.90234;936.0485;;;;
2023/03/16 14:48:29;;;;;;;0.8;0.8;;;;;;;16.41;34.9043;936.0628;;;;
2023/03/16 14:50:53;;;;;;;0.9;0.9;;;;;;;16.19;34.29492;936.0838;;;;